sensor_id;sensor_type;location;lat;lon;timestamp;P1;durP1;ratioP1;P2;durP2;ratioP2
20954;SDS011;10636;19.390;-99.256;2022-07-29T00:00:26;6.82;;;6.22;;
20954;SDS011;10636;19.390;-99.256;2022-07-29T00:02:54;6.82;;;6.32;;
20954;SDS011;10636;19.390;-99.256;2022-07-29T00:05:23;6.40;;;5.90;;
20954;SDS011;10636;19.390;-99.256;2022-07-29T00:07:51;6.60;;;6.10;;
20954;SDS011;10636;19.390;-99.256;2022-07-29T00:10:21;6.38;;;5.97;;
20954;SDS011;10636;19.390;-99.256;2022-07-29T00:12:50;5.80;;;5.40;;
20954;SDS011;10636;19.390;-99.256;2022-07-29T00:15:18;6.30;;;5.85;;
20954;SDS011;10636;19.390;-99.256;2022-07-29T00:17:46;6.10;;;5.60;;
20954;SDS011;10636;19.390;-99.256;2022-07-29T00:20:15;6.15;;;5.75;;
20954;SDS011;10636;19.390;-99.256;2022-07-29T00:22:46;5.70;;;5.30;;
20954;SDS011;10636;19.390;-99.256;2022-07-29T00:25:15;5.78;;;5.38;;
20954;SDS011;10636;19.390;-99.256;2022-07-29T00:27:45;5.90;;;5.50;;
20954;SDS011;10636;19.390;-99.256;2022-07-29T00:30:14;5.63;;;5.22;;
20954;SDS011;10636;19.390;-99.256;2022-07-29T00:32:42;6.00;;;5.60;;
20954;SDS011;10636;19.390;-99.256;2022-07-29T00:35:10;5.50;;;5.10;;
20954;SDS011;10636;19.390;-99.256;2022-07-29T00:37:55;5.65;;;5.25;;
20954;SDS011;10636;19.390;-99.256;2022-07-29T00:40:24;5.70;;;5.30;;
20954;SDS011;10636;19.390;-99.256;2022-07-29T00:42:54;5.50;;;5.10;;
20954;SDS011;10636;19.390;-99.256;2022-07-29T00:45:22;5.50;;;5.10;;
20954;SDS011;10636;19.390;-99.256;2022-07-29T00:47:51;5.65;;;5.25;;
20954;SDS011;10636;19.390;-99.256;2022-07-29T00:50:19;5.53;;;5.13;;
20954;SDS011;10636;19.390;-99.256;2022-07-29T00:52:47;5.78;;;5.35;;
20954;SDS011;10636;19.390;-99.256;2022-07-29T00:55:17;5.78;;;5.28;;
20954;SDS011;10636;19.390;-99.256;2022-07-29T00:57:46;5.88;;;5.38;;
20954;SDS011;10636;19.390;-99.256;2022-07-29T01:00:17;5.38;;;4.97;;
20954;SDS011;10636;19.390;-99.256;2022-07-29T01:02:47;5.53;;;5.05;;
20954;SDS011;10636;19.390;-99.256;2022-07-29T01:05:16;5.65;;;5.25;;
20954;SDS011;10636;19.390;-99.256;2022-07-29T01:07:48;5.60;;;5.20;;
20954;SDS011;10636;19.390;-99.256;2022-07-29T01:10:18;5.70;;;5.20;;
20954;SDS011;10636;19.390;-99.256;2022-07-29T01:12:48;5.35;;;4.85;;
20954;SDS011;10636;19.390;-99.256;2022-07-29T01:15:20;5.50;;;5.10;;
20954;SDS011;10636;19.390;-99.256;2022-07-29T01:17:51;5.43;;;5.03;;
20954;SDS011;10636;19.390;-99.256;2022-07-29T01:20:31;5.30;;;4.90;;
20954;SDS011;10636;19.390;-99.256;2022-07-29T01:23:26;5.47;;;5.07;;
20954;SDS011;10636;19.390;-99.256;2022-07-29T01:26:22;5.25;;;4.82;;
20954;SDS011;10636;19.390;-99.256;2022-07-29T01:29:03;5.32;;;5.03;;
20954;SDS011;10636;19.390;-99.256;2022-07-29T01:31:38;4.78;;;4.38;;
20954;SDS011;10636;19.390;-99.256;2022-07-29T01:34:14;4.78;;;4.47;;
20954;SDS011;10636;19.390;-99.256;2022-07-29T01:36:49;4.72;;;4.35;;
20954;SDS011;10636;19.390;-99.256;2022-07-29T01:39:22;4.43;;;4.13;;
20954;SDS011;10636;19.390;-99.256;2022-07-29T01:41:58;4.72;;;4.43;;
20954;SDS011;10636;19.390;-99.256;2022-07-29T01:44:35;4.80;;;4.40;;
20954;SDS011;10636;19.390;-99.256;2022-07-29T01:47:10;4.82;;;4.43;;
20954;SDS011;10636;19.390;-99.256;2022-07-29T01:49:45;4.60;;;4.20;;
20954;SDS011;10636;19.390;-99.256;2022-07-29T01:52:19;4.80;;;4.43;;
20954;SDS011;10636;19.390;-99.256;2022-07-29T01:54:52;4.55;;;4.20;;
20954;SDS011;10636;19.390;-99.256;2022-07-29T01:57:24;4.30;;;4.00;;
20954;SDS011;10636;19.390;-99.256;2022-07-29T01:59:58;4.80;;;4.45;;
20954;SDS011;10636;19.390;-99.256;2022-07-29T02:02:28;4.32;;;4.03;;
20954;SDS011;10636;19.390;-99.256;2022-07-29T02:04:59;4.57;;;4.28;;
20954;SDS011;10636;19.390;-99.256;2022-07-29T02:07:30;4.63;;;4.22;;
20954;SDS011;10636;19.390;-99.256;2022-07-29T02:10:01;4.60;;;4.20;;
20954;SDS011;10636;19.390;-99.256;2022-07-29T02:12:32;4.28;;;3.97;;
20954;SDS011;10636;19.390;-99.256;2022-07-29T02:15:04;4.15;;;3.90;;
20954;SDS011;10636;19.390;-99.256;2022-07-29T02:17:35;4.20;;;3.90;;
20954;SDS011;10636;19.390;-99.256;2022-07-29T02:20:08;4.30;;;3.90;;
20954;SDS011;10636;19.390;-99.256;2022-07-29T02:22:38;4.32;;;4.03;;
20954;SDS011;10636;19.390;-99.256;2022-07-29T02:25:09;4.45;;;4.05;;
20954;SDS011;10636;19.390;-99.256;2022-07-29T02:27:38;4.20;;;3.90;;
20954;SDS011;10636;19.390;-99.256;2022-07-29T02:30:10;4.18;;;3.88;;
20954;SDS011;10636;19.390;-99.256;2022-07-29T02:32:40;4.28;;;3.95;;
20954;SDS011;10636;19.390;-99.256;2022-07-29T02:35:11;4.25;;;3.95;;
20954;SDS011;10636;19.390;-99.256;2022-07-29T02:37:42;4.10;;;3.80;;
20954;SDS011;10636;19.390;-99.256;2022-07-29T02:40:33;3.97;;;3.67;;
20954;SDS011;10636;19.390;-99.256;2022-07-29T02:43:05;3.97;;;3.67;;
20954;SDS011;10636;19.390;-99.256;2022-07-29T02:45:37;4.05;;;3.75;;
20954;SDS011;10636;19.390;-99.256;2022-07-29T02:48:09;4.10;;;3.80;;
20954;SDS011;10636;19.390;-99.256;2022-07-29T02:50:42;4.00;;;3.70;;
20954;SDS011;10636;19.390;-99.256;2022-07-29T02:53:17;3.92;;;3.63;;
20954;SDS011;10636;19.390;-99.256;2022-07-29T02:55:51;4.20;;;3.90;;
20954;SDS011;10636;19.390;-99.256;2022-07-29T02:58:25;4.00;;;3.70;;
20954;SDS011;10636;19.390;-99.256;2022-07-29T03:00:57;4.00;;;3.70;;
20954;SDS011;10636;19.390;-99.256;2022-07-29T03:03:29;4.00;;;3.65;;
20954;SDS011;10636;19.390;-99.256;2022-07-29T03:06:01;3.50;;;3.30;;
20954;SDS011;10636;19.390;-99.256;2022-07-29T03:08:31;3.42;;;3.22;;
20954;SDS011;10636;19.390;-99.256;2022-07-29T03:11:01;3.67;;;3.38;;
20954;SDS011;10636;19.390;-99.256;2022-07-29T03:13:31;4.00;;;3.70;;
20954;SDS011;10636;19.390;-99.256;2022-07-29T03:16:01;3.90;;;3.60;;
20954;SDS011;10636;19.390;-99.256;2022-07-29T03:18:31;3.50;;;3.30;;
20954;SDS011;10636;19.390;-99.256;2022-07-29T03:21:00;3.47;;;3.25;;
20954;SDS011;10636;19.390;-99.256;2022-07-29T03:23:29;3.70;;;3.50;;
20954;SDS011;10636;19.390;-99.256;2022-07-29T03:25:58;3.80;;;3.50;;
20954;SDS011;10636;19.390;-99.256;2022-07-29T03:28:26;3.80;;;3.50;;
20954;SDS011;10636;19.390;-99.256;2022-07-29T03:30:55;3.97;;;3.67;;
20954;SDS011;10636;19.390;-99.256;2022-07-29T03:33:25;3.70;;;3.40;;
20954;SDS011;10636;19.390;-99.256;2022-07-29T03:35:54;3.60;;;3.40;;
20954;SDS011;10636;19.390;-99.256;2022-07-29T03:38:23;3.60;;;3.40;;
20954;SDS011;10636;19.390;-99.256;2022-07-29T03:40:57;3.65;;;3.45;;
20954;SDS011;10636;19.390;-99.256;2022-07-29T03:43:29;3.50;;;3.20;;
20954;SDS011;10636;19.390;-99.256;2022-07-29T03:46:00;3.75;;;3.45;;
20954;SDS011;10636;19.390;-99.256;2022-07-29T03:48:33;3.58;;;3.28;;
20954;SDS011;10636;19.390;-99.256;2022-07-29T03:51:03;3.70;;;3.40;;
20954;SDS011;10636;19.390;-99.256;2022-07-29T03:53:32;3.83;;;3.53;;
20954;SDS011;10636;19.390;-99.256;2022-07-29T03:56:02;3.83;;;3.53;;
20954;SDS011;10636;19.390;-99.256;2022-07-29T03:58:33;3.55;;;3.35;;
20954;SDS011;10636;19.390;-99.256;2022-07-29T04:01:02;3.60;;;3.30;;
20954;SDS011;10636;19.390;-99.256;2022-07-29T04:03:33;3.63;;;3.35;;
20954;SDS011;10636;19.390;-99.256;2022-07-29T04:06:02;3.60;;;3.35;;
20954;SDS011;10636;19.390;-99.256;2022-07-29T04:08:32;3.65;;;3.35;;
20954;SDS011;10636;19.390;-99.256;2022-07-29T04:11:01;3.80;;;3.50;;
20954;SDS011;10636;19.390;-99.256;2022-07-29T04:13:31;3.72;;;3.42;;
20954;SDS011;10636;19.390;-99.256;2022-07-29T04:16:00;3.47;;;3.28;;
20954;SDS011;10636;19.390;-99.256;2022-07-29T04:18:28;3.50;;;3.20;;
20954;SDS011;10636;19.390;-99.256;2022-07-29T04:21:01;3.63;;;3.33;;
20954;SDS011;10636;19.390;-99.256;2022-07-29T04:23:30;3.72;;;3.38;;
20954;SDS011;10636;19.390;-99.256;2022-07-29T04:25:59;3.40;;;3.17;;
20954;SDS011;10636;19.390;-99.256;2022-07-29T04:28:28;3.58;;;3.30;;
20954;SDS011;10636;19.390;-99.256;2022-07-29T04:30:56;3.42;;;3.22;;
20954;SDS011;10636;19.390;-99.256;2022-07-29T04:33:24;3.80;;;3.50;;
20954;SDS011;10636;19.390;-99.256;2022-07-29T04:35:54;3.40;;;3.20;;
20954;SDS011;10636;19.390;-99.256;2022-07-29T04:38:23;3.70;;;3.40;;
20954;SDS011;10636;19.390;-99.256;2022-07-29T04:40:51;3.30;;;3.10;;
20954;SDS011;10636;19.390;-99.256;2022-07-29T04:43:20;3.70;;;3.40;;
20954;SDS011;10636;19.390;-99.256;2022-07-29T04:45:48;3.75;;;3.45;;
20954;SDS011;10636;19.390;-99.256;2022-07-29T04:48:16;3.30;;;3.10;;
20954;SDS011;10636;19.390;-99.256;2022-07-29T04:50:45;3.70;;;3.40;;
20954;SDS011;10636;19.390;-99.256;2022-07-29T04:53:15;3.60;;;3.30;;
20954;SDS011;10636;19.390;-99.256;2022-07-29T04:55:44;3.38;;;3.17;;
20954;SDS011;10636;19.390;-99.256;2022-07-29T04:58:12;3.65;;;3.45;;
20954;SDS011;10636;19.390;-99.256;2022-07-29T05:00:41;3.85;;;3.55;;
20954;SDS011;10636;19.390;-99.256;2022-07-29T05:03:09;3.47;;;3.17;;
20954;SDS011;10636;19.390;-99.256;2022-07-29T05:05:37;3.78;;;3.47;;
20954;SDS011;10636;19.390;-99.256;2022-07-29T05:08:06;3.30;;;3.10;;
20954;SDS011;10636;19.390;-99.256;2022-07-29T05:10:38;3.60;;;3.30;;
20954;SDS011;10636;19.390;-99.256;2022-07-29T05:13:07;3.58;;;3.28;;
20954;SDS011;10636;19.390;-99.256;2022-07-29T05:15:35;3.60;;;3.30;;
20954;SDS011;10636;19.390;-99.256;2022-07-29T05:18:05;3.70;;;3.40;;
20954;SDS011;10636;19.390;-99.256;2022-07-29T05:20:33;3.35;;;3.05;;
20954;SDS011;10636;19.390;-99.256;2022-07-29T05:23:02;3.42;;;3.13;;
20954;SDS011;10636;19.390;-99.256;2022-07-29T05:25:31;3.70;;;3.40;;
20954;SDS011;10636;19.390;-99.256;2022-07-29T05:28:01;3.40;;;3.20;;
20954;SDS011;10636;19.390;-99.256;2022-07-29T05:30:29;3.15;;;2.95;;
20954;SDS011;10636;19.390;-99.256;2022-07-29T05:32:57;3.72;;;3.42;;
20954;SDS011;10636;19.390;-99.256;2022-07-29T05:35:26;3.72;;;3.42;;
20954;SDS011;10636;19.390;-99.256;2022-07-29T05:37:54;4.03;;;3.63;;
20954;SDS011;10636;19.390;-99.256;2022-07-29T05:40:23;3.70;;;3.40;;
20954;SDS011;10636;19.390;-99.256;2022-07-29T05:42:51;3.55;;;3.25;;
20954;SDS011;10636;19.390;-99.256;2022-07-29T05:45:21;3.50;;;3.20;;
20954;SDS011;10636;19.390;-99.256;2022-07-29T05:47:50;3.80;;;3.50;;
20954;SDS011;10636;19.390;-99.256;2022-07-29T05:50:19;3.25;;;3.05;;
20954;SDS011;10636;19.390;-99.256;2022-07-29T05:52:47;2.83;;;2.63;;
20954;SDS011;10636;19.390;-99.256;2022-07-29T05:55:15;3.10;;;2.90;;
20954;SDS011;10636;19.390;-99.256;2022-07-29T05:57:44;3.45;;;3.20;;
20954;SDS011;10636;19.390;-99.256;2022-07-29T06:00:12;3.42;;;3.13;;
20954;SDS011;10636;19.390;-99.256;2022-07-29T06:02:43;3.38;;;3.17;;
20954;SDS011;10636;19.390;-99.256;2022-07-29T06:05:12;3.30;;;3.10;;
20954;SDS011;10636;19.390;-99.256;2022-07-29T06:07:40;3.50;;;3.20;;
20954;SDS011;10636;19.390;-99.256;2022-07-29T06:10:09;3.17;;;2.88;;
20954;SDS011;10636;19.390;-99.256;2022-07-29T06:12:37;3.17;;;2.97;;
20954;SDS011;10636;19.390;-99.256;2022-07-29T06:15:06;2.92;;;2.72;;
20954;SDS011;10636;19.390;-99.256;2022-07-29T06:17:35;3.13;;;2.92;;
20954;SDS011;10636;19.390;-99.256;2022-07-29T06:20:05;2.97;;;2.78;;
20954;SDS011;10636;19.390;-99.256;2022-07-29T06:22:34;3.08;;;2.88;;
20954;SDS011;10636;19.390;-99.256;2022-07-29T06:25:03;3.00;;;2.80;;
20954;SDS011;10636;19.390;-99.256;2022-07-29T06:27:32;3.03;;;2.83;;
20954;SDS011;10636;19.390;-99.256;2022-07-29T06:30:00;2.90;;;2.70;;
20954;SDS011;10636;19.390;-99.256;2022-07-29T06:32:29;3.03;;;2.83;;
20954;SDS011;10636;19.390;-99.256;2022-07-29T06:34:57;2.83;;;2.63;;
20954;SDS011;10636;19.390;-99.256;2022-07-29T06:37:27;2.97;;;2.78;;
20954;SDS011;10636;19.390;-99.256;2022-07-29T06:39:55;2.88;;;2.67;;
20954;SDS011;10636;19.390;-99.256;2022-07-29T06:42:37;3.00;;;2.80;;
20954;SDS011;10636;19.390;-99.256;2022-07-29T06:45:10;2.90;;;2.70;;
20954;SDS011;10636;19.390;-99.256;2022-07-29T06:47:38;2.78;;;2.58;;
20954;SDS011;10636;19.390;-99.256;2022-07-29T06:50:07;2.67;;;2.47;;
20954;SDS011;10636;19.390;-99.256;2022-07-29T06:52:39;2.90;;;2.70;;
20954;SDS011;10636;19.390;-99.256;2022-07-29T06:55:08;2.80;;;2.60;;
20954;SDS011;10636;19.390;-99.256;2022-07-29T06:57:36;2.65;;;2.55;;
20954;SDS011;10636;19.390;-99.256;2022-07-29T07:00:05;2.83;;;2.63;;
20954;SDS011;10636;19.390;-99.256;2022-07-29T07:02:34;3.00;;;2.80;;
20954;SDS011;10636;19.390;-99.256;2022-07-29T07:05:03;3.00;;;2.80;;
20954;SDS011;10636;19.390;-99.256;2022-07-29T07:07:32;3.17;;;2.88;;
20954;SDS011;10636;19.390;-99.256;2022-07-29T07:10:02;2.67;;;2.47;;
20954;SDS011;10636;19.390;-99.256;2022-07-29T07:12:31;2.83;;;2.63;;
20954;SDS011;10636;19.390;-99.256;2022-07-29T07:15:00;2.70;;;2.50;;
20954;SDS011;10636;19.390;-99.256;2022-07-29T07:17:28;2.97;;;2.78;;
20954;SDS011;10636;19.390;-99.256;2022-07-29T07:19:57;3.03;;;2.70;;
20954;SDS011;10636;19.390;-99.256;2022-07-29T07:22:25;2.80;;;2.60;;
20954;SDS011;10636;19.390;-99.256;2022-07-29T07:24:53;2.58;;;2.47;;
20954;SDS011;10636;19.390;-99.256;2022-07-29T07:27:23;2.88;;;2.67;;
20954;SDS011;10636;19.390;-99.256;2022-07-29T07:29:52;2.80;;;2.60;;
20954;SDS011;10636;19.390;-99.256;2022-07-29T07:32:21;3.00;;;2.80;;
20954;SDS011;10636;19.390;-99.256;2022-07-29T07:34:49;2.75;;;2.55;;
20954;SDS011;10636;19.390;-99.256;2022-07-29T07:37:18;2.60;;;2.40;;
20954;SDS011;10636;19.390;-99.256;2022-07-29T07:39:46;2.60;;;2.40;;
20954;SDS011;10636;19.390;-99.256;2022-07-29T07:42:14;2.92;;;2.63;;
20954;SDS011;10636;19.390;-99.256;2022-07-29T07:44:45;2.47;;;2.38;;
20954;SDS011;10636;19.390;-99.256;2022-07-29T07:47:13;2.75;;;2.55;;
20954;SDS011;10636;19.390;-99.256;2022-07-29T07:49:45;2.90;;;2.70;;
20954;SDS011;10636;19.390;-99.256;2022-07-29T07:52:14;2.78;;;2.58;;
20954;SDS011;10636;19.390;-99.256;2022-07-29T07:54:43;2.67;;;2.50;;
20954;SDS011;10636;19.390;-99.256;2022-07-29T07:57:12;2.45;;;2.25;;
20954;SDS011;10636;19.390;-99.256;2022-07-29T07:59:41;2.80;;;2.60;;
20954;SDS011;10636;19.390;-99.256;2022-07-29T08:02:11;3.00;;;2.80;;
20954;SDS011;10636;19.390;-99.256;2022-07-29T08:04:39;2.75;;;2.55;;
20954;SDS011;10636;19.390;-99.256;2022-07-29T08:07:08;2.85;;;2.65;;
20954;SDS011;10636;19.390;-99.256;2022-07-29T08:09:36;2.90;;;2.70;;
20954;SDS011;10636;19.390;-99.256;2022-07-29T08:12:04;2.58;;;2.40;;
20954;SDS011;10636;19.390;-99.256;2022-07-29T08:14:33;2.60;;;2.42;;
20954;SDS011;10636;19.390;-99.256;2022-07-29T08:17:02;2.70;;;2.50;;
20954;SDS011;10636;19.390;-99.256;2022-07-29T08:19:32;2.80;;;2.60;;
20954;SDS011;10636;19.390;-99.256;2022-07-29T08:22:00;2.85;;;2.65;;
20954;SDS011;10636;19.390;-99.256;2022-07-29T08:24:29;2.72;;;2.53;;
20954;SDS011;10636;19.390;-99.256;2022-07-29T08:27:18;2.83;;;2.63;;
20954;SDS011;10636;19.390;-99.256;2022-07-29T08:29:47;2.67;;;2.47;;
20954;SDS011;10636;19.390;-99.256;2022-07-29T08:32:16;2.90;;;2.60;;
20954;SDS011;10636;19.390;-99.256;2022-07-29T08:34:46;2.65;;;2.45;;
20954;SDS011;10636;19.390;-99.256;2022-07-29T08:37:14;2.67;;;2.47;;
20954;SDS011;10636;19.390;-99.256;2022-07-29T08:39:43;2.50;;;2.30;;
20954;SDS011;10636;19.390;-99.256;2022-07-29T08:42:11;2.85;;;2.65;;
20954;SDS011;10636;19.390;-99.256;2022-07-29T08:44:40;2.63;;;2.42;;
20954;SDS011;10636;19.390;-99.256;2022-07-29T08:47:09;2.70;;;2.50;;
20954;SDS011;10636;19.390;-99.256;2022-07-29T08:49:37;3.00;;;2.80;;
20954;SDS011;10636;19.390;-99.256;2022-07-29T08:52:09;2.97;;;2.78;;
20954;SDS011;10636;19.390;-99.256;2022-07-29T08:54:38;2.88;;;2.67;;
20954;SDS011;10636;19.390;-99.256;2022-07-29T08:57:10;2.92;;;2.72;;
20954;SDS011;10636;19.390;-99.256;2022-07-29T08:59:42;2.90;;;2.70;;
20954;SDS011;10636;19.390;-99.256;2022-07-29T09:02:15;2.90;;;2.70;;
20954;SDS011;10636;19.390;-99.256;2022-07-29T09:04:47;2.80;;;2.60;;
20954;SDS011;10636;19.390;-99.256;2022-07-29T09:07:18;3.10;;;2.90;;
20954;SDS011;10636;19.390;-99.256;2022-07-29T09:09:47;3.10;;;2.90;;
20954;SDS011;10636;19.390;-99.256;2022-07-29T09:12:15;3.28;;;3.08;;
20954;SDS011;10636;19.390;-99.256;2022-07-29T09:14:44;3.10;;;2.90;;
20954;SDS011;10636;19.390;-99.256;2022-07-29T09:17:12;3.13;;;2.92;;
20954;SDS011;10636;19.390;-99.256;2022-07-29T09:19:43;3.35;;;3.05;;
20954;SDS011;10636;19.390;-99.256;2022-07-29T09:22:11;3.95;;;3.10;;
20954;SDS011;10636;19.390;-99.256;2022-07-29T09:24:57;3.13;;;2.92;;
20954;SDS011;10636;19.390;-99.256;2022-07-29T09:27:26;3.40;;;3.20;;
20954;SDS011;10636;19.390;-99.256;2022-07-29T09:29:57;3.13;;;2.92;;
20954;SDS011;10636;19.390;-99.256;2022-07-29T09:32:27;3.50;;;3.30;;
20954;SDS011;10636;19.390;-99.256;2022-07-29T09:37:42;3.45;;;3.15;;
20954;SDS011;10636;19.390;-99.256;2022-07-29T09:40:16;3.25;;;3.05;;
20954;SDS011;10636;19.390;-99.256;2022-07-29T09:42:46;3.20;;;3.00;;
20954;SDS011;10636;19.390;-99.256;2022-07-29T09:45:25;3.30;;;3.10;;
20954;SDS011;10636;19.390;-99.256;2022-07-29T09:47:55;3.30;;;3.10;;
20954;SDS011;10636;19.390;-99.256;2022-07-29T09:50:34;3.30;;;3.10;;
20954;SDS011;10636;19.390;-99.256;2022-07-29T09:53:03;3.58;;;3.38;;
20954;SDS011;10636;19.390;-99.256;2022-07-29T09:55:40;3.60;;;3.30;;
20954;SDS011;10636;19.390;-99.256;2022-07-29T09:58:15;3.20;;;3.00;;
20954;SDS011;10636;19.390;-99.256;2022-07-29T10:00:45;3.38;;;3.08;;
20954;SDS011;10636;19.390;-99.256;2022-07-29T10:03:14;3.50;;;3.20;;
20954;SDS011;10636;19.390;-99.256;2022-07-29T10:05:43;3.33;;;3.03;;
20954;SDS011;10636;19.390;-99.256;2022-07-29T10:08:12;3.70;;;3.40;;
20954;SDS011;10636;19.390;-99.256;2022-07-29T10:10:42;3.58;;;3.28;;
20954;SDS011;10636;19.390;-99.256;2022-07-29T10:13:11;3.80;;;3.50;;
20954;SDS011;10636;19.390;-99.256;2022-07-29T10:15:41;3.50;;;3.30;;
20954;SDS011;10636;19.390;-99.256;2022-07-29T10:18:12;3.40;;;3.10;;
20954;SDS011;10636;19.390;-99.256;2022-07-29T10:20:42;3.50;;;3.20;;
20954;SDS011;10636;19.390;-99.256;2022-07-29T10:23:11;3.53;;;3.17;;
20954;SDS011;10636;19.390;-99.256;2022-07-29T10:25:39;3.33;;;3.13;;
20954;SDS011;10636;19.390;-99.256;2022-07-29T10:28:09;3.58;;;3.30;;
20954;SDS011;10636;19.390;-99.256;2022-07-29T10:30:38;3.53;;;3.22;;
20954;SDS011;10636;19.390;-99.256;2022-07-29T10:33:15;3.53;;;3.30;;
20954;SDS011;10636;19.390;-99.256;2022-07-29T10:36:04;3.20;;;3.00;;
20954;SDS011;10636;19.390;-99.256;2022-07-29T10:38:51;3.55;;;3.30;;
20954;SDS011;10636;19.390;-99.256;2022-07-29T10:41:36;3.70;;;3.40;;
20954;SDS011;10636;19.390;-99.256;2022-07-29T10:44:15;3.60;;;3.40;;
20954;SDS011;10636;19.390;-99.256;2022-07-29T10:46:45;3.67;;;3.42;;
20954;SDS011;10636;19.390;-99.256;2022-07-29T10:49:15;3.30;;;3.10;;
20954;SDS011;10636;19.390;-99.256;2022-07-29T10:51:53;3.92;;;3.58;;
20954;SDS011;10636;19.390;-99.256;2022-07-29T10:54:37;3.47;;;3.17;;
20954;SDS011;10636;19.390;-99.256;2022-07-29T11:02:56;3.90;;;3.60;;
20954;SDS011;10636;19.390;-99.256;2022-07-29T11:05:26;3.70;;;3.40;;
20954;SDS011;10636;19.390;-99.256;2022-07-29T11:10:49;3.50;;;3.30;;
20954;SDS011;10636;19.390;-99.256;2022-07-29T11:16:17;3.63;;;3.33;;
20954;SDS011;10636;19.390;-99.256;2022-07-29T11:21:47;3.63;;;3.33;;
20954;SDS011;10636;19.390;-99.256;2022-07-29T11:24:17;4.03;;;3.72;;
20954;SDS011;10636;19.390;-99.256;2022-07-29T11:29:38;3.50;;;3.30;;
20954;SDS011;10636;19.390;-99.256;2022-07-29T11:32:14;3.60;;;3.30;;
20954;SDS011;10636;19.390;-99.256;2022-07-29T11:34:45;3.80;;;3.50;;
20954;SDS011;10636;19.390;-99.256;2022-07-29T11:37:22;3.70;;;3.40;;
20954;SDS011;10636;19.390;-99.256;2022-07-29T11:40:14;3.70;;;3.40;;
20954;SDS011;10636;19.390;-99.256;2022-07-29T11:42:47;3.78;;;3.47;;
20954;SDS011;10636;19.390;-99.256;2022-07-29T11:45:20;4.10;;;3.80;;
20954;SDS011;10636;19.390;-99.256;2022-07-29T11:47:54;3.85;;;3.55;;
20954;SDS011;10636;19.390;-99.256;2022-07-29T11:50:32;3.90;;;3.60;;
20954;SDS011;10636;19.390;-99.256;2022-07-29T11:53:02;4.28;;;3.88;;
20954;SDS011;10636;19.390;-99.256;2022-07-29T11:55:38;4.47;;;4.07;;
20954;SDS011;10636;19.390;-99.256;2022-07-29T11:58:08;4.13;;;3.72;;
20954;SDS011;10636;19.390;-99.256;2022-07-29T12:00:38;4.22;;;3.92;;
20954;SDS011;10636;19.390;-99.256;2022-07-29T12:03:08;4.60;;;4.20;;
20954;SDS011;10636;19.390;-99.256;2022-07-29T12:05:40;4.22;;;3.83;;
20954;SDS011;10636;19.390;-99.256;2022-07-29T12:08:11;4.20;;;3.80;;
20954;SDS011;10636;19.390;-99.256;2022-07-29T12:10:42;4.30;;;4.00;;
20954;SDS011;10636;19.390;-99.256;2022-07-29T12:13:11;4.40;;;4.00;;
20954;SDS011;10636;19.390;-99.256;2022-07-29T12:15:50;4.40;;;4.10;;
20954;SDS011;10636;19.390;-99.256;2022-07-29T12:18:20;4.25;;;3.85;;
20954;SDS011;10636;19.390;-99.256;2022-07-29T12:20:48;4.50;;;4.10;;
20954;SDS011;10636;19.390;-99.256;2022-07-29T12:23:25;4.10;;;3.80;;
20954;SDS011;10636;19.390;-99.256;2022-07-29T12:25:53;4.60;;;4.20;;
20954;SDS011;10636;19.390;-99.256;2022-07-29T12:28:22;4.80;;;4.40;;
20954;SDS011;10636;19.390;-99.256;2022-07-29T12:30:52;4.80;;;4.40;;
20954;SDS011;10636;19.390;-99.256;2022-07-29T12:33:21;4.80;;;4.30;;
20954;SDS011;10636;19.390;-99.256;2022-07-29T12:35:52;4.50;;;4.10;;
20954;SDS011;10636;19.390;-99.256;2022-07-29T12:38:23;4.63;;;4.22;;
20954;SDS011;10636;19.390;-99.256;2022-07-29T12:40:52;4.57;;;4.22;;
20954;SDS011;10636;19.390;-99.256;2022-07-29T12:43:21;4.82;;;4.53;;
20954;SDS011;10636;19.390;-99.256;2022-07-29T12:45:52;4.60;;;4.20;;
20954;SDS011;10636;19.390;-99.256;2022-07-29T12:48:32;4.13;;;3.83;;
20954;SDS011;10636;19.390;-99.256;2022-07-29T12:51:03;4.93;;;4.55;;
20954;SDS011;10636;19.390;-99.256;2022-07-29T12:53:34;4.72;;;4.35;;
20954;SDS011;10636;19.390;-99.256;2022-07-29T12:56:03;4.30;;;4.00;;
20954;SDS011;10636;19.390;-99.256;2022-07-29T12:58:33;5.00;;;4.60;;
20954;SDS011;10636;19.390;-99.256;2022-07-29T13:01:09;4.78;;;4.47;;
20954;SDS011;10636;19.390;-99.256;2022-07-29T13:03:42;4.55;;;4.15;;
20954;SDS011;10636;19.390;-99.256;2022-07-29T13:06:27;4.93;;;4.53;;
20954;SDS011;10636;19.390;-99.256;2022-07-29T13:09:00;4.40;;;4.10;;
20954;SDS011;10636;19.390;-99.256;2022-07-29T13:11:31;4.65;;;4.25;;
20954;SDS011;10636;19.390;-99.256;2022-07-29T13:14:00;4.63;;;4.30;;
20954;SDS011;10636;19.390;-99.256;2022-07-29T13:16:31;4.70;;;4.30;;
20954;SDS011;10636;19.390;-99.256;2022-07-29T13:19:09;5.07;;;4.68;;
20954;SDS011;10636;19.390;-99.256;2022-07-29T13:21:39;5.00;;;4.50;;
20954;SDS011;10636;19.390;-99.256;2022-07-29T13:24:08;4.80;;;4.40;;
20954;SDS011;10636;19.390;-99.256;2022-07-29T13:26:39;5.00;;;4.60;;
20954;SDS011;10636;19.390;-99.256;2022-07-29T13:29:08;5.28;;;4.78;;
20954;SDS011;10636;19.390;-99.256;2022-07-29T13:31:38;5.65;;;5.25;;
20954;SDS011;10636;19.390;-99.256;2022-07-29T13:34:06;5.28;;;4.88;;
20954;SDS011;10636;19.390;-99.256;2022-07-29T13:36:35;5.22;;;4.82;;
20954;SDS011;10636;19.390;-99.256;2022-07-29T13:39:03;5.22;;;4.82;;
20954;SDS011;10636;19.390;-99.256;2022-07-29T13:41:31;4.97;;;4.57;;
20954;SDS011;10636;19.390;-99.256;2022-07-29T13:44:00;5.38;;;4.95;;
20954;SDS011;10636;19.390;-99.256;2022-07-29T13:46:29;4.90;;;4.60;;
20954;SDS011;10636;19.390;-99.256;2022-07-29T13:48:59;5.43;;;5.03;;
20954;SDS011;10636;19.390;-99.256;2022-07-29T13:51:27;5.35;;;4.95;;
20954;SDS011;10636;19.390;-99.256;2022-07-29T13:53:58;4.88;;;4.47;;
20954;SDS011;10636;19.390;-99.256;2022-07-29T13:56:27;5.07;;;4.68;;
20954;SDS011;10636;19.390;-99.256;2022-07-29T13:58:55;5.20;;;4.80;;
20954;SDS011;10636;19.390;-99.256;2022-07-29T14:01:24;5.50;;;5.00;;
20954;SDS011;10636;19.390;-99.256;2022-07-29T14:03:52;5.57;;;5.18;;
20954;SDS011;10636;19.390;-99.256;2022-07-29T14:06:22;5.05;;;4.65;;
20954;SDS011;10636;19.390;-99.256;2022-07-29T14:08:51;4.88;;;4.47;;
20954;SDS011;10636;19.390;-99.256;2022-07-29T14:11:19;5.03;;;4.63;;
20954;SDS011;10636;19.390;-99.256;2022-07-29T14:13:48;5.07;;;4.65;;
20954;SDS011;10636;19.390;-99.256;2022-07-29T14:16:16;5.88;;;5.47;;
20954;SDS011;10636;19.390;-99.256;2022-07-29T14:18:45;5.40;;;5.00;;
20954;SDS011;10636;19.390;-99.256;2022-07-29T14:21:13;5.15;;;4.75;;
20954;SDS011;10636;19.390;-99.256;2022-07-29T14:23:43;5.70;;;5.20;;
20954;SDS011;10636;19.390;-99.256;2022-07-29T14:26:11;5.28;;;4.78;;
20954;SDS011;10636;19.390;-99.256;2022-07-29T14:28:40;5.13;;;4.72;;
20954;SDS011;10636;19.390;-99.256;2022-07-29T14:31:09;5.15;;;4.75;;
20954;SDS011;10636;19.390;-99.256;2022-07-29T14:33:38;5.07;;;4.63;;
20954;SDS011;10636;19.390;-99.256;2022-07-29T14:36:06;5.07;;;4.68;;
20954;SDS011;10636;19.390;-99.256;2022-07-29T14:38:34;5.35;;;4.85;;
20954;SDS011;10636;19.390;-99.256;2022-07-29T14:41:05;5.22;;;4.82;;
20954;SDS011;10636;19.390;-99.256;2022-07-29T14:43:34;5.35;;;4.95;;
20954;SDS011;10636;19.390;-99.256;2022-07-29T14:46:02;4.97;;;4.57;;
20954;SDS011;10636;19.390;-99.256;2022-07-29T14:48:32;5.53;;;5.13;;
20954;SDS011;10636;19.390;-99.256;2022-07-29T14:51:00;5.32;;;4.95;;
20954;SDS011;10636;19.390;-99.256;2022-07-29T14:53:29;5.80;;;5.40;;
20954;SDS011;10636;19.390;-99.256;2022-07-29T14:55:58;6.13;;;5.63;;
20954;SDS011;10636;19.390;-99.256;2022-07-29T14:58:28;5.72;;;5.32;;
20954;SDS011;10636;19.390;-99.256;2022-07-29T15:00:56;5.95;;;5.45;;